createdAt,value
2019-03-15T00:02:13.608Z,6.37
2019-03-15T00:04:44.000Z,6.38
2019-03-15T00:07:14.326Z,6.39
2019-03-15T00:09:45.588Z,6.34
2019-03-15T00:12:16.094Z,6.33
2019-03-15T00:14:46.635Z,6.35
2019-03-15T00:17:18.021Z,6.26
2019-03-15T00:19:49.344Z,6.23
2019-03-15T00:22:19.876Z,6.25
2019-03-15T00:24:50.245Z,6.24
2019-03-15T00:27:20.663Z,6.33
2019-03-15T00:29:50.899Z,6.18
2019-03-15T00:32:21.339Z,6.18
2019-03-15T00:34:52.699Z,6.14
2019-03-15T00:37:22.846Z,6.03
2019-03-15T00:39:54.069Z,6.06
2019-03-15T00:42:24.337Z,5.99
2019-03-15T00:44:54.619Z,6.04
2019-03-15T00:47:24.785Z,5.89
2019-03-15T00:49:55.168Z,5.87
2019-03-15T00:52:25.757Z,5.96
2019-03-15T00:54:56.029Z,5.86
2019-03-15T00:57:26.291Z,5.72
2019-03-15T00:59:56.564Z,5.72
2019-03-15T01:02:26.893Z,5.72
2019-03-15T01:04:57.013Z,5.83
2019-03-15T01:07:27.112Z,5.86
2019-03-15T01:09:57.412Z,5.99
2019-03-15T01:12:27.657Z,6.05
2019-03-15T01:14:57.958Z,6.22
2019-03-15T01:17:28.235Z,6.23
2019-03-15T01:19:58.494Z,6.34
2019-03-15T01:22:28.750Z,6.38
2019-03-15T01:24:58.848Z,6.38
2019-03-15T01:27:29.043Z,6.35
2019-03-15T01:29:59.250Z,6.33
2019-03-15T01:32:29.585Z,6.41
2019-03-15T01:34:59.845Z,6.37
2019-03-15T01:37:29.949Z,6.38
2019-03-15T01:40:00.772Z,6.46
2019-03-15T01:42:31.371Z,6.44
2019-03-15T01:45:01.535Z,6.45
2019-03-15T01:47:31.713Z,6.53
2019-03-15T01:50:01.806Z,6.44
2019-03-15T01:52:31.969Z,6.36
2019-03-15T01:55:02.061Z,6.50
2019-03-15T01:57:32.171Z,6.65
2019-03-15T02:00:02.297Z,6.61
2019-03-15T02:02:32.519Z,6.64
2019-03-15T02:05:02.622Z,6.62
2019-03-15T02:07:32.781Z,6.59
2019-03-15T02:10:03.074Z,6.61
2019-03-15T02:12:33.290Z,6.67
2019-03-15T02:15:03.590Z,6.82
2019-03-15T02:17:33.837Z,6.78
2019-03-15T02:20:04.331Z,6.83
2019-03-15T02:22:34.605Z,6.81
2019-03-15T02:25:04.801Z,6.83
2019-03-15T02:27:35.148Z,6.86
2019-03-15T02:30:05.924Z,6.82
2019-03-15T02:32:36.313Z,6.84
2019-03-15T02:35:06.761Z,6.84
2019-03-15T02:37:36.919Z,6.93
2019-03-15T02:40:07.298Z,6.87
2019-03-15T02:42:37.439Z,6.90
2019-03-15T02:45:07.798Z,6.96
2019-03-15T02:47:39.985Z,7.00
2019-03-15T02:50:12.346Z,6.99
2019-03-15T02:52:42.786Z,7.04
2019-03-15T02:55:13.147Z,7.06
2019-03-15T02:57:43.505Z,7.04
2019-03-15T03:00:14.336Z,7.08
2019-03-15T03:02:44.596Z,7.11
2019-03-15T03:05:14.973Z,7.09
2019-03-15T03:07:45.257Z,6.95
2019-03-15T03:10:15.668Z,6.88
2019-03-15T03:12:45.898Z,6.76
2019-03-15T03:15:16.255Z,6.65
2019-03-15T03:17:46.524Z,6.56
2019-03-15T03:20:17.062Z,6.47
2019-03-15T03:22:47.287Z,6.42
2019-03-15T03:25:17.708Z,6.31
2019-03-15T03:27:48.035Z,6.28
2019-03-15T03:30:18.424Z,6.33
2019-03-15T03:32:48.716Z,6.25
2019-03-15T03:35:18.914Z,6.23
2019-03-15T03:37:49.232Z,6.17
2019-03-15T03:40:20.500Z,6.16
2019-03-15T03:42:51.428Z,6.13
2019-03-15T03:45:23.379Z,5.99
2019-03-15T03:47:54.019Z,5.96
2019-03-15T03:50:24.461Z,5.98
2019-03-15T03:52:54.938Z,5.95
2019-03-15T03:55:25.621Z,5.96
2019-03-15T03:57:56.146Z,5.97
2019-03-15T04:00:26.537Z,5.90
2019-03-15T04:02:56.928Z,5.85
2019-03-15T04:05:27.330Z,5.82
2019-03-15T04:07:57.905Z,5.76
2019-03-15T04:10:41.420Z,5.80
2019-03-15T04:13:11.719Z,5.64
2019-03-15T04:15:42.221Z,5.55
2019-03-15T04:18:14.623Z,5.48
2019-03-15T04:20:52.017Z,5.62
2019-03-15T04:23:22.404Z,5.59
2019-03-15T04:26:01.180Z,5.56
2019-03-15T04:28:31.526Z,5.58
2019-03-15T04:31:01.940Z,5.56
2019-03-15T04:33:32.218Z,5.65
2019-03-15T04:36:02.604Z,5.65
2019-03-15T04:38:35.037Z,5.67
2019-03-15T04:41:05.387Z,5.65
2019-03-15T04:43:35.763Z,5.66
2019-03-15T04:46:06.284Z,5.73
2019-03-15T04:48:36.590Z,5.86
2019-03-15T04:51:06.944Z,5.89
2019-03-15T04:53:37.150Z,5.92
2019-03-15T04:56:07.800Z,5.97
2019-03-15T04:58:38.166Z,6.03
2019-03-15T05:01:08.474Z,6.02
2019-03-15T05:03:38.727Z,6.02
2019-03-15T05:06:08.959Z,6.05
2019-03-15T05:08:39.368Z,6.09
2019-03-15T05:11:09.569Z,6.20
2019-03-15T05:13:39.818Z,6.23
2019-03-15T05:16:10.083Z,6.23
2019-03-15T05:18:40.392Z,6.27
2019-03-15T05:21:10.807Z,6.25
2019-03-15T05:23:41.031Z,6.23
2019-03-15T05:26:11.356Z,6.22
2019-03-15T05:28:41.609Z,6.26
2019-03-15T05:31:11.919Z,6.26
2019-03-15T05:33:42.132Z,6.26
2019-03-15T05:36:12.485Z,6.30
2019-03-15T05:38:42.696Z,6.37
2019-03-15T05:41:13.018Z,6.36
2019-03-15T05:43:43.341Z,6.43
2019-03-15T05:46:13.672Z,6.37
2019-03-15T05:48:43.998Z,6.36
2019-03-15T05:51:14.465Z,6.36
2019-03-15T05:53:44.669Z,6.35
2019-03-15T05:56:14.949Z,6.33
2019-03-15T05:58:45.262Z,6.40
2019-03-15T06:01:15.637Z,6.35
2019-03-15T06:03:48.786Z,6.35
2019-03-15T06:06:18.975Z,6.44
2019-03-15T06:08:49.296Z,6.41
2019-03-15T06:11:19.539Z,6.38
2019-03-15T06:13:49.913Z,6.37
2019-03-15T06:16:20.160Z,6.39
2019-03-15T06:18:50.327Z,6.38
2019-03-15T06:21:20.659Z,6.36
2019-03-15T06:23:50.805Z,6.38
2019-03-15T06:26:20.905Z,6.32
2019-03-15T06:28:51.118Z,6.32
2019-03-15T06:31:21.321Z,6.37
2019-03-15T06:33:51.701Z,6.39
2019-03-15T06:36:21.905Z,6.29
2019-03-15T06:38:52.176Z,6.31
2019-03-15T06:41:22.501Z,6.24
2019-03-15T06:43:53.760Z,6.21
2019-03-15T06:46:23.946Z,6.23
2019-03-15T06:48:55.083Z,6.20
2019-03-15T06:51:25.534Z,6.20
2019-03-15T06:53:55.807Z,6.22
2019-03-15T06:56:26.127Z,6.26
2019-03-15T06:58:56.371Z,6.27
2019-03-15T07:01:26.785Z,6.25
2019-03-15T07:03:57.182Z,6.14
2019-03-15T07:06:28.841Z,6.11
2019-03-15T07:08:59.150Z,6.16
2019-03-15T07:11:29.419Z,6.21
2019-03-15T07:13:59.753Z,6.20
2019-03-15T07:16:29.999Z,6.19
2019-03-15T07:19:00.169Z,6.19
2019-03-15T07:21:30.337Z,6.18
2019-03-15T07:24:00.561Z,6.08
2019-03-15T07:26:30.781Z,6.10
2019-03-15T07:29:01.006Z,6.18
2019-03-15T07:31:31.256Z,6.07
2019-03-15T07:34:01.483Z,6.18
2019-03-15T07:36:31.648Z,6.18
2019-03-15T07:39:01.992Z,6.20
2019-03-15T07:41:32.335Z,6.17
2019-03-15T07:44:02.636Z,6.25
2019-03-15T07:46:32.896Z,6.28
2019-03-15T07:49:03.246Z,6.25
2019-03-15T07:51:33.408Z,6.31
2019-03-15T07:54:03.778Z,6.23
2019-03-15T07:56:33.979Z,6.21
2019-03-15T07:59:04.292Z,6.69
2019-03-15T08:01:34.584Z,6.62
2019-03-15T08:04:16.318Z,6.38
2019-03-15T08:06:36.983Z,6.41
2019-03-15T08:09:08.764Z,6.38
2019-03-15T08:11:39.140Z,6.42
2019-03-15T08:14:09.441Z,6.43
2019-03-15T08:16:39.732Z,6.48
2019-03-15T08:19:10.122Z,6.62
2019-03-15T08:21:40.315Z,6.69
2019-03-15T08:24:10.579Z,6.71
2019-03-15T08:26:40.746Z,6.66
2019-03-15T08:29:11.077Z,6.70
2019-03-15T08:31:41.300Z,6.71
2019-03-15T08:34:11.493Z,6.73
2019-03-15T08:36:41.725Z,6.67
2019-03-15T08:39:11.975Z,6.76
2019-03-15T08:41:42.295Z,6.90
2019-03-15T08:44:12.587Z,6.97
2019-03-15T08:46:42.831Z,6.88
2019-03-15T08:49:13.187Z,6.94
2019-03-15T08:51:43.441Z,6.99
2019-03-15T08:54:13.684Z,7.07
2019-03-15T08:56:43.947Z,7.12
2019-03-15T08:59:14.270Z,7.06
2019-03-15T09:01:44.443Z,7.09
2019-03-15T09:04:14.706Z,7.29
2019-03-15T09:06:44.928Z,7.34
2019-03-15T09:09:15.269Z,7.47
2019-03-15T09:11:45.561Z,7.47
2019-03-15T09:14:15.829Z,7.48
2019-03-15T09:16:46.046Z,7.60
2019-03-15T09:19:16.312Z,7.72
2019-03-15T09:21:46.523Z,7.75
2019-03-15T09:24:16.800Z,7.79
2019-03-15T09:26:47.111Z,7.74
2019-03-15T09:29:17.354Z,7.85
2019-03-15T09:31:48.484Z,7.88
2019-03-15T09:34:18.940Z,7.85
2019-03-15T09:36:50.584Z,7.91
2019-03-15T09:39:20.978Z,7.87
2019-03-15T09:41:51.201Z,7.96
2019-03-15T09:44:21.423Z,8.03
2019-03-15T09:46:51.803Z,8.19
2019-03-15T09:49:21.972Z,8.16
2019-03-15T09:51:52.217Z,8.20
2019-03-15T09:54:22.394Z,8.22
2019-03-15T09:56:52.607Z,8.32
2019-03-15T09:59:22.861Z,8.28
2019-03-15T10:01:53.075Z,8.24
2019-03-15T10:04:23.288Z,8.28
2019-03-15T10:06:53.412Z,8.31
2019-03-15T10:09:23.660Z,8.41
2019-03-15T10:11:56.502Z,8.53
2019-03-15T10:14:25.968Z,8.71
2019-03-15T10:16:57.096Z,8.81
2019-03-15T10:19:29.738Z,8.81
2019-03-15T10:21:59.210Z,8.83
2019-03-15T10:24:29.496Z,8.87
2019-03-15T10:26:59.708Z,9.09
2019-03-15T10:29:30.120Z,9.10
2019-03-15T10:32:01.591Z,9.17
2019-03-15T10:34:31.822Z,9.25
2019-03-15T10:37:02.033Z,9.39
2019-03-15T10:39:32.278Z,9.56
2019-03-15T10:42:02.686Z,9.59
2019-03-15T10:44:32.833Z,9.67
2019-03-15T10:47:03.021Z,9.67
2019-03-15T10:49:33.179Z,9.76
2019-03-15T10:52:03.427Z,9.85
2019-03-15T10:54:33.685Z,9.89
2019-03-15T10:57:04.077Z,9.94
2019-03-15T10:59:34.347Z,10.41
2019-03-15T11:02:05.312Z,10.49
2019-03-15T11:04:35.583Z,10.68
2019-03-15T11:07:05.880Z,10.81
2019-03-15T11:09:36.188Z,10.83
2019-03-15T11:12:06.546Z,10.84
2019-03-15T11:14:36.962Z,10.92
2019-03-15T11:17:07.198Z,10.75
2019-03-15T11:19:37.386Z,10.91
2019-03-15T11:22:07.913Z,10.89
2019-03-15T11:24:38.167Z,10.92
2019-03-15T11:27:08.309Z,10.96
2019-03-15T11:29:38.556Z,11.03
2019-03-15T11:32:08.811Z,11.09
2019-03-15T11:34:39.089Z,11.07
2019-03-15T11:37:09.391Z,11.04
2019-03-15T11:39:39.674Z,11.17
2019-03-15T11:42:09.834Z,11.14
2019-03-15T11:44:40.027Z,11.19
2019-03-15T11:47:10.398Z,11.25
2019-03-15T11:49:40.879Z,11.27
2019-03-15T11:52:11.180Z,11.40
2019-03-15T11:54:41.346Z,11.43
2019-03-15T11:57:11.749Z,11.48
2019-03-15T11:59:42.012Z,11.41
2019-03-15T12:02:12.262Z,11.47
2019-03-15T12:04:42.432Z,11.52
2019-03-15T12:07:12.641Z,11.52
2019-03-15T12:09:42.885Z,11.59
2019-03-15T12:12:13.235Z,11.61
2019-03-15T12:14:43.409Z,11.59
2019-03-15T12:17:13.577Z,11.62
2019-03-15T12:19:43.856Z,11.52
2019-03-15T12:22:14.154Z,11.53
2019-03-15T12:24:44.490Z,11.60
2019-03-15T12:27:14.784Z,11.58
2019-03-15T12:29:44.970Z,11.65
2019-03-15T12:32:15.118Z,11.67
2019-03-15T12:34:45.386Z,11.64
2019-03-15T12:37:15.702Z,11.67
2019-03-15T12:39:46.037Z,11.63
2019-03-15T12:42:16.287Z,11.53
2019-03-15T12:44:46.483Z,11.55
2019-03-15T12:47:16.694Z,11.59
2019-03-15T12:49:46.957Z,11.57
2019-03-15T12:52:20.353Z,11.59
2019-03-15T12:54:48.996Z,11.61
2019-03-15T12:57:19.214Z,11.60
2019-03-15T12:59:49.406Z,11.59
2019-03-15T13:02:20.426Z,11.59
2019-03-15T13:04:52.036Z,11.58
2019-03-15T13:07:22.359Z,11.59
2019-03-15T13:09:52.678Z,11.73
2019-03-15T13:12:23.033Z,11.69
2019-03-15T13:14:53.329Z,11.68
2019-03-15T13:17:23.648Z,11.73
2019-03-15T13:19:55.427Z,11.72
2019-03-15T13:22:26.101Z,11.79
2019-03-15T13:24:56.319Z,11.76
2019-03-15T13:27:26.552Z,11.77
2019-03-15T13:29:56.781Z,11.74
2019-03-15T13:32:26.985Z,11.84
2019-03-15T13:34:57.141Z,11.91
2019-03-15T13:37:27.378Z,11.84
2019-03-15T13:39:57.755Z,12.02
2019-03-15T13:42:27.993Z,12.08
2019-03-15T13:44:58.440Z,12.07
2019-03-15T13:47:28.693Z,12.05
2019-03-15T13:49:58.926Z,12.14
2019-03-15T13:52:29.193Z,12.18
2019-03-15T13:54:59.545Z,12.20
2019-03-15T13:57:29.799Z,12.30
2019-03-15T14:00:00.060Z,12.25
2019-03-15T14:02:30.486Z,12.16
2019-03-15T14:05:00.644Z,12.18
2019-03-15T14:07:30.901Z,12.16
2019-03-15T14:10:04.016Z,12.24
2019-03-15T14:12:34.168Z,12.16
2019-03-15T14:15:04.889Z,12.03
2019-03-15T14:17:35.242Z,12.11
2019-03-15T14:20:07.082Z,12.08
2019-03-15T14:22:37.304Z,12.05
2019-03-15T14:25:08.980Z,12.03
2019-03-15T14:27:39.252Z,12.04
2019-03-15T14:30:11.555Z,12.04
2019-03-15T14:32:42.025Z,12.00
2019-03-15T14:35:12.390Z,12.06
2019-03-15T14:37:42.833Z,12.05
2019-03-15T14:40:13.629Z,12.06
2019-03-15T14:42:44.064Z,12.02
2019-03-15T14:45:14.597Z,12.05
2019-03-15T14:47:45.322Z,12.08
2019-03-15T14:50:15.924Z,12.03
2019-03-15T14:52:46.254Z,12.05
2019-03-15T14:55:16.725Z,12.02
2019-03-15T14:57:52.575Z,12.04
2019-03-15T15:00:19.314Z,12.08
2019-03-15T15:02:49.766Z,12.05
2019-03-15T15:05:20.016Z,12.04
2019-03-15T15:07:50.380Z,12.03
2019-03-15T15:10:21.006Z,12.06
2019-03-15T15:12:51.502Z,12.08
2019-03-15T15:15:21.965Z,12.21
2019-03-15T15:17:52.512Z,12.11
2019-03-15T15:20:23.461Z,12.20
2019-03-15T15:22:53.918Z,12.21
2019-03-15T15:25:24.421Z,12.26
2019-03-15T15:28:04.496Z,12.25
2019-03-15T15:30:26.994Z,12.21
2019-03-15T15:32:57.281Z,12.23
2019-03-15T15:35:27.622Z,12.26
2019-03-15T15:37:58.235Z,12.17
2019-03-15T15:40:28.864Z,12.13
2019-03-15T15:42:59.319Z,12.15
2019-03-15T15:45:30.109Z,12.16
2019-03-15T15:48:00.441Z,12.13
2019-03-15T15:50:30.653Z,12.04
2019-03-15T15:53:00.920Z,12.09
2019-03-15T15:55:31.512Z,12.11
2019-03-15T15:58:01.961Z,12.03
2019-03-15T16:00:32.671Z,12.00
2019-03-15T16:03:02.926Z,11.92
2019-03-15T16:05:33.306Z,12.02
2019-03-15T16:08:03.717Z,11.96
2019-03-15T16:10:33.945Z,12.01
2019-03-15T16:13:16.601Z,12.01
2019-03-15T16:15:36.399Z,11.95
2019-03-15T16:18:06.690Z,11.95
2019-03-15T16:20:37.085Z,11.90
2019-03-15T16:23:07.280Z,11.95
2019-03-15T16:25:37.482Z,12.01
2019-03-15T16:28:07.801Z,11.97
2019-03-15T16:30:38.163Z,11.94
2019-03-15T16:33:08.592Z,11.90
2019-03-15T16:35:38.815Z,11.89
2019-03-15T16:38:09.152Z,11.90
2019-03-15T16:40:39.457Z,11.76
2019-03-15T16:43:09.826Z,11.89
2019-03-15T16:45:40.842Z,11.81
2019-03-15T16:48:11.219Z,11.82
2019-03-15T16:50:41.450Z,11.84
2019-03-15T16:53:11.784Z,11.85
2019-03-15T16:55:42.117Z,11.80
2019-03-15T16:58:12.440Z,11.74
2019-03-15T17:00:42.670Z,11.81
2019-03-15T17:03:13.145Z,11.73
2019-03-15T17:05:43.675Z,11.77
2019-03-15T17:08:13.912Z,11.78
2019-03-15T17:10:44.134Z,11.84
2019-03-15T17:13:14.612Z,11.84
2019-03-15T17:15:44.784Z,11.84
2019-03-15T17:18:15.182Z,11.80
2019-03-15T17:20:45.483Z,11.82
2019-03-15T17:23:15.737Z,11.80
2019-03-15T17:25:46.103Z,11.83
2019-03-15T17:28:16.384Z,11.84
2019-03-15T17:30:46.751Z,11.85
2019-03-15T17:33:16.968Z,11.75
2019-03-15T17:35:47.261Z,11.75
2019-03-15T17:38:17.737Z,11.74
2019-03-15T17:40:48.032Z,11.78
2019-03-15T17:43:18.286Z,11.70
2019-03-15T17:45:48.434Z,11.81
2019-03-15T17:48:18.844Z,11.77
2019-03-15T17:50:49.152Z,11.71
2019-03-15T17:53:19.490Z,11.71
2019-03-15T17:55:49.900Z,11.71
2019-03-15T17:58:20.840Z,11.74
2019-03-15T18:00:51.613Z,11.68
2019-03-15T18:03:22.504Z,11.72
2019-03-15T18:05:52.752Z,11.66
2019-03-15T18:08:23.215Z,11.57
2019-03-15T18:10:53.597Z,11.69
2019-03-15T18:13:23.955Z,11.67
2019-03-15T18:15:54.329Z,11.66
2019-03-15T18:18:24.795Z,11.65
2019-03-15T18:20:54.998Z,11.65
2019-03-15T18:23:25.380Z,11.67
2019-03-15T18:25:55.795Z,11.60
2019-03-15T18:28:26.222Z,11.61
2019-03-15T18:30:59.302Z,11.65
2019-03-15T18:33:28.756Z,11.68
2019-03-15T18:35:59.048Z,11.67
2019-03-15T18:38:29.650Z,11.65
2019-03-15T18:40:59.858Z,11.65
2019-03-15T18:43:30.154Z,11.63
2019-03-15T18:46:00.572Z,11.70
2019-03-15T18:48:30.997Z,11.65
2019-03-15T18:51:01.314Z,11.66
2019-03-15T18:53:31.879Z,11.72
2019-03-15T18:56:02.310Z,11.58
2019-03-15T18:58:32.745Z,11.59
2019-03-15T19:01:03.035Z,11.55
2019-03-15T19:03:33.356Z,11.61
2019-03-15T19:06:03.765Z,11.61
2019-03-15T19:08:35.497Z,11.63
2019-03-15T19:11:06.035Z,11.58
2019-03-15T19:13:36.568Z,11.55
2019-03-15T19:16:19.282Z,11.53
2019-03-15T19:18:40.016Z,11.51
2019-03-15T19:21:10.340Z,11.55
2019-03-15T19:23:40.662Z,11.60
2019-03-15T19:26:10.938Z,11.52
2019-03-15T19:28:41.138Z,11.58
2019-03-15T19:31:11.377Z,11.56
2019-03-15T19:33:41.574Z,11.58
2019-03-15T19:36:11.894Z,11.55
2019-03-15T19:38:43.107Z,11.58
2019-03-15T19:41:13.630Z,11.50
2019-03-15T19:43:43.949Z,11.65
2019-03-15T19:46:14.350Z,11.57
2019-03-15T19:48:44.821Z,11.66
2019-03-15T19:51:15.222Z,11.68
2019-03-15T19:53:45.606Z,11.57
2019-03-15T19:56:15.896Z,11.56
2019-03-15T19:58:46.360Z,11.66
2019-03-15T20:01:16.926Z,11.66
2019-03-15T20:03:47.235Z,11.63
2019-03-15T20:06:17.698Z,11.68
2019-03-15T20:08:48.020Z,11.56
2019-03-15T20:11:18.278Z,11.44
2019-03-15T20:13:48.553Z,11.47
2019-03-15T20:16:18.942Z,11.39
2019-03-15T20:18:49.201Z,11.38
2019-03-15T20:21:19.359Z,11.36
2019-03-15T20:23:49.533Z,11.37
2019-03-15T20:26:19.764Z,11.32
2019-03-15T20:28:49.957Z,11.28
2019-03-15T20:31:20.354Z,11.18
2019-03-15T20:33:50.537Z,11.12
2019-03-15T20:36:20.757Z,11.15
2019-03-15T20:38:51.056Z,11.19
2019-03-15T20:41:21.361Z,11.23
2019-03-15T20:43:51.623Z,11.18
2019-03-15T20:46:34.903Z,11.14
2019-03-15T20:48:53.994Z,11.13
2019-03-15T20:51:24.524Z,11.07
2019-03-15T20:53:54.772Z,11.06
2019-03-15T20:56:25.166Z,11.09
2019-03-15T20:58:55.383Z,11.11
2019-03-15T21:03:31.032Z,11.02
2019-03-15T21:06:01.658Z,11.00
2019-03-15T21:08:31.918Z,10.98
2019-03-15T21:11:02.103Z,10.96
2019-03-15T21:13:33.906Z,10.94
2019-03-15T21:16:04.915Z,10.92
2019-03-15T21:18:35.098Z,10.92
2019-03-15T21:21:08.474Z,10.95
2019-03-15T21:23:38.739Z,10.95
2019-03-15T21:26:08.992Z,10.94
2019-03-15T21:28:39.233Z,11.02
2019-03-15T21:31:09.586Z,11.00
2019-03-15T21:33:39.812Z,11.07
2019-03-15T21:36:10.075Z,11.11
2019-03-15T21:38:48.137Z,11.15
2019-03-15T21:41:12.441Z,11.17
2019-03-15T21:43:42.989Z,11.10
2019-03-15T21:46:13.245Z,11.12
2019-03-15T21:48:43.589Z,11.14
2019-03-15T21:51:13.931Z,11.09
2019-03-15T21:53:44.270Z,11.13
2019-03-15T21:56:14.631Z,11.02
2019-03-15T21:58:44.839Z,11.12
2019-03-15T22:01:15.255Z,11.08
2019-03-15T22:03:45.591Z,11.02
2019-03-15T22:06:16.051Z,10.99
2019-03-15T22:08:46.410Z,11.01
2019-03-15T22:11:21.429Z,11.03
2019-03-15T22:13:48.643Z,11.02
2019-03-15T22:16:18.928Z,10.93
2019-03-15T22:18:49.293Z,11.02
2019-03-15T22:21:19.621Z,10.93
2019-03-15T22:23:49.793Z,10.97
2019-03-15T22:26:20.166Z,11.01
2019-03-15T22:28:50.380Z,10.97
2019-03-15T22:31:20.717Z,11.00
2019-03-15T22:33:50.980Z,10.98
2019-03-15T22:36:22.214Z,10.97
2019-03-15T22:38:52.379Z,10.97
2019-03-15T22:41:22.657Z,11.01
2019-03-15T22:43:52.738Z,11.01
2019-03-15T22:46:23.878Z,11.07
2019-03-15T22:48:54.196Z,11.00
2019-03-15T22:51:24.345Z,10.97
2019-03-15T22:53:54.609Z,10.86
2019-03-15T22:56:24.948Z,10.77
2019-03-15T22:58:57.522Z,10.71
2019-03-15T23:01:30.551Z,10.75
2019-03-15T23:04:00.033Z,10.67
2019-03-15T23:06:30.301Z,10.61
2019-03-15T23:09:00.617Z,10.65
2019-03-15T23:11:30.863Z,10.71
2019-03-15T23:14:01.133Z,10.63
2019-03-15T23:16:31.492Z,10.65
2019-03-15T23:19:01.772Z,10.67
2019-03-15T23:21:31.967Z,10.69
2019-03-15T23:24:02.164Z,10.59
2019-03-15T23:26:32.446Z,10.60
2019-03-15T23:29:05.918Z,10.64
2019-03-15T23:31:43.689Z,10.59
2019-03-15T23:34:08.311Z,10.62
2019-03-15T23:36:39.839Z,10.59
2019-03-15T23:39:10.169Z,10.53
2019-03-15T23:41:40.337Z,10.50
2019-03-15T23:44:10.613Z,10.53
2019-03-15T23:46:40.917Z,10.59
2019-03-15T23:49:11.093Z,10.56
2019-03-15T23:51:41.427Z,10.52
2019-03-15T23:54:11.669Z,10.60
2019-03-15T23:56:42.005Z,10.62
2019-03-15T23:59:12.229Z,10.60
